sensor_id;sensor_type;location;lat;lon;timestamp;P1;durP1;ratioP1;P2;durP2;ratioP2
51566;SDS011;37657;53.182;5.638;2023-04-02T00:07:40;6.25;;;3.85;;
51566;SDS011;37657;53.182;5.638;2023-04-02T00:13:03;7.70;;;4.88;;
51566;SDS011;37657;53.182;5.638;2023-04-02T00:15:29;18.88;;;6.30;;
51566;SDS011;37657;53.182;5.638;2023-04-02T00:17:55;10.15;;;5.53;;
51566;SDS011;37657;53.182;5.638;2023-04-02T00:20:21;7.20;;;5.28;;
51566;SDS011;37657;53.182;5.638;2023-04-02T00:22:49;9.15;;;4.82;;
51566;SDS011;37657;53.182;5.638;2023-04-02T00:25:14;8.10;;;4.50;;
51566;SDS011;37657;53.182;5.638;2023-04-02T00:27:40;10.10;;;5.28;;
51566;SDS011;37657;53.182;5.638;2023-04-02T00:30:07;6.50;;;3.85;;
51566;SDS011;37657;53.182;5.638;2023-04-02T00:32:37;9.32;;;4.90;;
51566;SDS011;37657;53.182;5.638;2023-04-02T00:35:03;11.95;;;4.40;;
51566;SDS011;37657;53.182;5.638;2023-04-02T00:37:36;7.55;;;4.47;;
51566;SDS011;37657;53.182;5.638;2023-04-02T00:40:08;9.48;;;5.13;;
51566;SDS011;37657;53.182;5.638;2023-04-02T00:42:44;14.57;;;5.07;;
51566;SDS011;37657;53.182;5.638;2023-04-02T00:45:31;7.57;;;4.40;;
51566;SDS011;37657;53.182;5.638;2023-04-02T00:50:55;6.18;;;4.55;;
51566;SDS011;37657;53.182;5.638;2023-04-02T00:53:37;9.00;;;4.35;;
51566;SDS011;37657;53.182;5.638;2023-04-02T00:56:04;6.63;;;5.05;;
51566;SDS011;37657;53.182;5.638;2023-04-02T00:58:41;6.65;;;4.28;;
51566;SDS011;37657;53.182;5.638;2023-04-02T01:01:15;14.57;;;6.15;;
51566;SDS011;37657;53.182;5.638;2023-04-02T01:03:50;8.87;;;4.60;;
51566;SDS011;37657;53.182;5.638;2023-04-02T01:06:17;11.00;;;4.45;;
51566;SDS011;37657;53.182;5.638;2023-04-02T01:08:51;6.30;;;4.22;;
51566;SDS011;37657;53.182;5.638;2023-04-02T01:16:42;7.05;;;4.63;;
51566;SDS011;37657;53.182;5.638;2023-04-02T01:21:55;8.10;;;4.43;;
51566;SDS011;37657;53.182;5.638;2023-04-02T01:24:31;8.07;;;4.00;;
51566;SDS011;37657;53.182;5.638;2023-04-02T01:26:59;6.45;;;3.58;;
51566;SDS011;37657;53.182;5.638;2023-04-02T01:29:47;4.82;;;3.30;;
51566;SDS011;37657;53.182;5.638;2023-04-02T01:32:18;7.07;;;3.88;;
51566;SDS011;37657;53.182;5.638;2023-04-02T01:34:46;6.03;;;3.72;;
51566;SDS011;37657;53.182;5.638;2023-04-02T01:37:26;6.75;;;3.30;;
51566;SDS011;37657;53.182;5.638;2023-04-02T01:40:13;8.13;;;4.57;;
51566;SDS011;37657;53.182;5.638;2023-04-02T01:43:02;6.22;;;4.13;;
51566;SDS011;37657;53.182;5.638;2023-04-02T01:45:40;11.35;;;6.72;;
51566;SDS011;37657;53.182;5.638;2023-04-02T01:48:22;5.30;;;3.40;;
51566;SDS011;37657;53.182;5.638;2023-04-02T01:50:51;7.40;;;4.00;;
51566;SDS011;37657;53.182;5.638;2023-04-02T01:53:19;5.28;;;3.30;;
51566;SDS011;37657;53.182;5.638;2023-04-02T01:58:18;6.40;;;3.38;;
51566;SDS011;37657;53.182;5.638;2023-04-02T02:00:49;12.07;;;4.57;;
51566;SDS011;37657;53.182;5.638;2023-04-02T02:03:23;6.30;;;3.85;;
51566;SDS011;37657;53.182;5.638;2023-04-02T02:05:50;6.32;;;4.68;;
51566;SDS011;37657;53.182;5.638;2023-04-02T02:08:20;5.30;;;3.20;;
51566;SDS011;37657;53.182;5.638;2023-04-02T02:10:57;8.00;;;4.38;;
51566;SDS011;37657;53.182;5.638;2023-04-02T02:13:23;7.38;;;4.85;;
51566;SDS011;37657;53.182;5.638;2023-04-02T02:15:49;7.45;;;3.58;;
51566;SDS011;37657;53.182;5.638;2023-04-02T02:18:15;4.63;;;3.13;;
51566;SDS011;37657;53.182;5.638;2023-04-02T02:20:47;7.20;;;4.35;;
51566;SDS011;37657;53.182;5.638;2023-04-02T02:23:14;6.18;;;3.58;;
51566;SDS011;37657;53.182;5.638;2023-04-02T02:25:40;11.45;;;4.03;;
51566;SDS011;37657;53.182;5.638;2023-04-02T02:28:08;6.97;;;3.38;;
51566;SDS011;37657;53.182;5.638;2023-04-02T02:30:41;6.72;;;3.97;;
51566;SDS011;37657;53.182;5.638;2023-04-02T02:38:41;4.30;;;2.28;;
51566;SDS011;37657;53.182;5.638;2023-04-02T02:46:38;6.82;;;3.05;;
51566;SDS011;37657;53.182;5.638;2023-04-02T02:49:09;3.67;;;3.30;;
51566;SDS011;37657;53.182;5.638;2023-04-02T02:51:51;5.72;;;2.55;;
51566;SDS011;37657;53.182;5.638;2023-04-02T02:54:21;9.85;;;2.67;;
51566;SDS011;37657;53.182;5.638;2023-04-02T02:56:50;6.63;;;3.40;;
51566;SDS011;37657;53.182;5.638;2023-04-02T02:59:20;5.32;;;2.63;;
51566;SDS011;37657;53.182;5.638;2023-04-02T03:01:47;7.93;;;3.22;;
51566;SDS011;37657;53.182;5.638;2023-04-02T03:04:13;5.38;;;2.97;;
51566;SDS011;37657;53.182;5.638;2023-04-02T03:06:47;6.53;;;3.55;;
51566;SDS011;37657;53.182;5.638;2023-04-02T03:12:20;6.13;;;2.78;;
51566;SDS011;37657;53.182;5.638;2023-04-02T03:14:52;2.70;;;2.22;;
51566;SDS011;37657;53.182;5.638;2023-04-02T03:17:40;3.92;;;2.83;;
51566;SDS011;37657;53.182;5.638;2023-04-02T03:20:12;3.65;;;2.88;;
51566;SDS011;37657;53.182;5.638;2023-04-02T03:22:51;3.67;;;2.63;;
51566;SDS011;37657;53.182;5.638;2023-04-02T03:28:00;4.70;;;3.03;;
51566;SDS011;37657;53.182;5.638;2023-04-02T03:30:36;4.60;;;2.88;;
51566;SDS011;37657;53.182;5.638;2023-04-02T03:33:09;6.38;;;3.20;;
51566;SDS011;37657;53.182;5.638;2023-04-02T03:35:58;3.72;;;2.75;;
51566;SDS011;37657;53.182;5.638;2023-04-02T03:38:35;7.22;;;2.47;;
51566;SDS011;37657;53.182;5.638;2023-04-02T03:41:14;13.75;;;2.90;;
51566;SDS011;37657;53.182;5.638;2023-04-02T03:43:57;10.50;;;3.75;;
51566;SDS011;37657;53.182;5.638;2023-04-02T03:46:31;6.28;;;2.72;;
51566;SDS011;37657;53.182;5.638;2023-04-02T03:49:05;5.68;;;3.25;;
51566;SDS011;37657;53.182;5.638;2023-04-02T03:54:03;5.20;;;3.83;;
51566;SDS011;37657;53.182;5.638;2023-04-02T03:56:33;6.40;;;2.35;;
51566;SDS011;37657;53.182;5.638;2023-04-02T04:04:37;3.72;;;2.85;;
51566;SDS011;37657;53.182;5.638;2023-04-02T04:07:05;4.22;;;3.15;;
51566;SDS011;37657;53.182;5.638;2023-04-02T04:09:38;5.57;;;2.55;;
51566;SDS011;37657;53.182;5.638;2023-04-02T04:12:43;3.17;;;2.30;;
51566;SDS011;37657;53.182;5.638;2023-04-02T04:15:07;7.05;;;3.47;;
51566;SDS011;37657;53.182;5.638;2023-04-02T04:17:44;10.02;;;3.20;;
51566;SDS011;37657;53.182;5.638;2023-04-02T04:20:19;5.88;;;3.15;;
51566;SDS011;37657;53.182;5.638;2023-04-02T04:22:54;3.65;;;2.47;;
51566;SDS011;37657;53.182;5.638;2023-04-02T04:25:33;5.40;;;3.58;;
51566;SDS011;37657;53.182;5.638;2023-04-02T04:31:03;4.60;;;3.42;;
51566;SDS011;37657;53.182;5.638;2023-04-02T04:33:45;6.75;;;2.55;;
51566;SDS011;37657;53.182;5.638;2023-04-02T04:36:22;4.80;;;2.30;;
51566;SDS011;37657;53.182;5.638;2023-04-02T04:38:55;4.43;;;2.97;;
51566;SDS011;37657;53.182;5.638;2023-04-02T04:41:25;5.38;;;3.20;;
51566;SDS011;37657;53.182;5.638;2023-04-02T04:49:34;4.57;;;2.70;;
51566;SDS011;37657;53.182;5.638;2023-04-02T04:52:18;4.70;;;2.63;;
51566;SDS011;37657;53.182;5.638;2023-04-02T04:54:46;7.78;;;4.07;;
51566;SDS011;37657;53.182;5.638;2023-04-02T04:57:22;6.03;;;3.45;;
51566;SDS011;37657;53.182;5.638;2023-04-02T05:00:16;4.32;;;2.50;;
51566;SDS011;37657;53.182;5.638;2023-04-02T05:05:46;4.10;;;2.95;;
51566;SDS011;37657;53.182;5.638;2023-04-02T05:08:13;2.47;;;2.10;;
51566;SDS011;37657;53.182;5.638;2023-04-02T05:10:47;10.60;;;4.68;;
51566;SDS011;37657;53.182;5.638;2023-04-02T05:13:17;7.35;;;2.80;;
51566;SDS011;37657;53.182;5.638;2023-04-02T05:21:50;10.25;;;3.78;;
51566;SDS011;37657;53.182;5.638;2023-04-02T05:27:55;5.30;;;2.88;;
51566;SDS011;37657;53.182;5.638;2023-04-02T05:30:08;13.00;;;3.40;;
51566;SDS011;37657;53.182;5.638;2023-04-02T05:33:02;4.53;;;2.28;;
51566;SDS011;37657;53.182;5.638;2023-04-02T05:36:06;7.53;;;2.83;;
51566;SDS011;37657;53.182;5.638;2023-04-02T05:38:36;5.22;;;2.08;;
51566;SDS011;37657;53.182;5.638;2023-04-02T05:41:21;8.98;;;3.22;;
51566;SDS011;37657;53.182;5.638;2023-04-02T05:44:37;3.92;;;2.03;;
51566;SDS011;37657;53.182;5.638;2023-04-02T05:49:27;5.07;;;2.35;;
51566;SDS011;37657;53.182;5.638;2023-04-02T05:51:57;2.58;;;2.05;;
51566;SDS011;37657;53.182;5.638;2023-04-02T05:54:28;6.72;;;3.75;;
51566;SDS011;37657;53.182;5.638;2023-04-02T05:57:28;9.00;;;4.55;;
51566;SDS011;37657;53.182;5.638;2023-04-02T05:59:57;6.07;;;2.30;;
51566;SDS011;37657;53.182;5.638;2023-04-02T06:02:37;6.68;;;2.92;;
51566;SDS011;37657;53.182;5.638;2023-04-02T06:05:16;4.18;;;2.72;;
51566;SDS011;37657;53.182;5.638;2023-04-02T06:07:51;6.00;;;2.90;;
51566;SDS011;37657;53.182;5.638;2023-04-02T06:10:48;4.68;;;2.78;;
51566;SDS011;37657;53.182;5.638;2023-04-02T06:13:28;6.05;;;3.10;;
51566;SDS011;37657;53.182;5.638;2023-04-02T06:15:53;4.05;;;2.17;;
51566;SDS011;37657;53.182;5.638;2023-04-02T06:18:20;6.88;;;3.08;;
51566;SDS011;37657;53.182;5.638;2023-04-02T06:20:48;4.43;;;3.13;;
51566;SDS011;37657;53.182;5.638;2023-04-02T06:23:15;5.05;;;2.65;;
51566;SDS011;37657;53.182;5.638;2023-04-02T06:25:45;4.55;;;2.53;;
51566;SDS011;37657;53.182;5.638;2023-04-02T06:31:39;3.55;;;2.70;;
51566;SDS011;37657;53.182;5.638;2023-04-02T06:34:27;3.90;;;3.08;;
51566;SDS011;37657;53.182;5.638;2023-04-02T06:36:55;4.65;;;3.17;;
51566;SDS011;37657;53.182;5.638;2023-04-02T06:39:24;5.88;;;1.98;;
51566;SDS011;37657;53.182;5.638;2023-04-02T06:42:04;7.88;;;2.88;;
51566;SDS011;37657;53.182;5.638;2023-04-02T06:44:36;2.92;;;1.77;;
51566;SDS011;37657;53.182;5.638;2023-04-02T06:47:06;5.25;;;2.17;;
51566;SDS011;37657;53.182;5.638;2023-04-02T06:49:45;2.83;;;1.90;;
51566;SDS011;37657;53.182;5.638;2023-04-02T06:52:20;3.17;;;2.28;;
51566;SDS011;37657;53.182;5.638;2023-04-02T06:57:42;3.40;;;2.10;;
51566;SDS011;37657;53.182;5.638;2023-04-02T07:00:10;3.95;;;2.55;;
51566;SDS011;37657;53.182;5.638;2023-04-02T07:02:46;3.80;;;2.45;;
51566;SDS011;37657;53.182;5.638;2023-04-02T07:05:16;4.05;;;2.22;;
51566;SDS011;37657;53.182;5.638;2023-04-02T07:07:42;4.80;;;2.00;;
51566;SDS011;37657;53.182;5.638;2023-04-02T07:10:07;2.70;;;1.85;;
51566;SDS011;37657;53.182;5.638;2023-04-02T07:12:34;4.28;;;2.17;;
51566;SDS011;37657;53.182;5.638;2023-04-02T07:15:00;4.85;;;2.63;;
51566;SDS011;37657;53.182;5.638;2023-04-02T07:17:25;2.55;;;1.40;;
51566;SDS011;37657;53.182;5.638;2023-04-02T07:19:51;5.00;;;2.28;;
51566;SDS011;37657;53.182;5.638;2023-04-02T07:22:17;4.47;;;2.05;;
51566;SDS011;37657;53.182;5.638;2023-04-02T07:24:43;5.60;;;2.65;;
51566;SDS011;37657;53.182;5.638;2023-04-02T07:27:10;2.95;;;2.53;;
51566;SDS011;37657;53.182;5.638;2023-04-02T07:29:36;5.70;;;3.30;;
51566;SDS011;37657;53.182;5.638;2023-04-02T07:32:06;3.63;;;2.28;;
51566;SDS011;37657;53.182;5.638;2023-04-02T07:34:36;8.25;;;3.33;;
51566;SDS011;37657;53.182;5.638;2023-04-02T07:37:03;3.05;;;1.85;;
51566;SDS011;37657;53.182;5.638;2023-04-02T07:39:29;2.95;;;1.90;;
51566;SDS011;37657;53.182;5.638;2023-04-02T07:42:01;1.63;;;1.30;;
51566;SDS011;37657;53.182;5.638;2023-04-02T07:44:27;3.25;;;2.10;;
51566;SDS011;37657;53.182;5.638;2023-04-02T07:46:53;3.47;;;1.45;;
51566;SDS011;37657;53.182;5.638;2023-04-02T07:49:18;4.32;;;3.05;;
51566;SDS011;37657;53.182;5.638;2023-04-02T07:51:44;3.92;;;2.42;;
51566;SDS011;37657;53.182;5.638;2023-04-02T07:54:10;8.00;;;2.53;;
51566;SDS011;37657;53.182;5.638;2023-04-02T07:56:35;3.53;;;1.95;;
51566;SDS011;37657;53.182;5.638;2023-04-02T07:59:01;1.73;;;1.42;;
51566;SDS011;37657;53.182;5.638;2023-04-02T08:01:28;4.00;;;2.58;;
51566;SDS011;37657;53.182;5.638;2023-04-02T08:03:59;3.83;;;2.25;;
51566;SDS011;37657;53.182;5.638;2023-04-02T08:06:25;3.75;;;2.00;;
51566;SDS011;37657;53.182;5.638;2023-04-02T08:08:51;4.45;;;2.58;;
51566;SDS011;37657;53.182;5.638;2023-04-02T08:11:17;2.72;;;1.98;;
51566;SDS011;37657;53.182;5.638;2023-04-02T08:13:43;3.45;;;2.53;;
51566;SDS011;37657;53.182;5.638;2023-04-02T08:16:08;16.10;;;2.33;;
51566;SDS011;37657;53.182;5.638;2023-04-02T08:18:34;3.28;;;2.20;;
51566;SDS011;37657;53.182;5.638;2023-04-02T08:21:00;3.50;;;2.03;;
51566;SDS011;37657;53.182;5.638;2023-04-02T08:23:26;3.50;;;2.00;;
51566;SDS011;37657;53.182;5.638;2023-04-02T08:25:52;3.47;;;1.92;;
51566;SDS011;37657;53.182;5.638;2023-04-02T08:28:19;7.35;;;1.98;;
51566;SDS011;37657;53.182;5.638;2023-04-02T08:30:46;3.08;;;2.15;;
51566;SDS011;37657;53.182;5.638;2023-04-02T08:33:15;8.45;;;3.60;;
51566;SDS011;37657;53.182;5.638;2023-04-02T08:35:42;3.78;;;2.10;;
51566;SDS011;37657;53.182;5.638;2023-04-02T08:38:10;5.25;;;2.97;;
51566;SDS011;37657;53.182;5.638;2023-04-02T08:40:40;5.85;;;2.03;;
51566;SDS011;37657;53.182;5.638;2023-04-02T08:49:10;3.15;;;1.70;;
51566;SDS011;37657;53.182;5.638;2023-04-02T08:51:41;4.63;;;1.60;;
51566;SDS011;37657;53.182;5.638;2023-04-02T08:54:14;5.13;;;2.88;;
51566;SDS011;37657;53.182;5.638;2023-04-02T08:56:48;1.58;;;1.40;;
51566;SDS011;37657;53.182;5.638;2023-04-02T08:59:37;3.30;;;1.48;;
51566;SDS011;37657;53.182;5.638;2023-04-02T09:04:50;3.33;;;2.13;;
51566;SDS011;37657;53.182;5.638;2023-04-02T09:07:16;5.20;;;2.33;;
51566;SDS011;37657;53.182;5.638;2023-04-02T09:09:41;7.68;;;3.17;;
51566;SDS011;37657;53.182;5.638;2023-04-02T09:12:20;3.00;;;2.10;;
51566;SDS011;37657;53.182;5.638;2023-04-02T09:14:54;2.50;;;1.88;;
51566;SDS011;37657;53.182;5.638;2023-04-02T09:17:25;5.15;;;2.30;;
51566;SDS011;37657;53.182;5.638;2023-04-02T09:20:00;6.88;;;2.97;;
51566;SDS011;37657;53.182;5.638;2023-04-02T09:22:30;2.38;;;2.17;;
51566;SDS011;37657;53.182;5.638;2023-04-02T09:24:59;1.80;;;1.27;;
51566;SDS011;37657;53.182;5.638;2023-04-02T09:27:29;2.85;;;1.58;;
51566;SDS011;37657;53.182;5.638;2023-04-02T09:30:00;2.97;;;2.08;;
51566;SDS011;37657;53.182;5.638;2023-04-02T09:32:38;2.38;;;1.52;;
51566;SDS011;37657;53.182;5.638;2023-04-02T09:35:06;2.70;;;1.38;;
51566;SDS011;37657;53.182;5.638;2023-04-02T09:37:40;2.03;;;1.33;;
51566;SDS011;37657;53.182;5.638;2023-04-02T09:42:42;2.90;;;1.55;;
51566;SDS011;37657;53.182;5.638;2023-04-02T09:45:12;9.65;;;2.67;;
51566;SDS011;37657;53.182;5.638;2023-04-02T09:47:43;3.38;;;1.45;;
51566;SDS011;37657;53.182;5.638;2023-04-02T09:52:57;2.13;;;1.80;;
51566;SDS011;37657;53.182;5.638;2023-04-02T09:55:40;3.65;;;2.25;;
51566;SDS011;37657;53.182;5.638;2023-04-02T09:58:15;3.10;;;1.75;;
51566;SDS011;37657;53.182;5.638;2023-04-02T10:00:48;2.25;;;1.67;;
51566;SDS011;37657;53.182;5.638;2023-04-02T10:03:20;4.30;;;1.70;;
51566;SDS011;37657;53.182;5.638;2023-04-02T10:06:11;3.25;;;2.13;;
51566;SDS011;37657;53.182;5.638;2023-04-02T10:08:39;2.05;;;1.33;;
51566;SDS011;37657;53.182;5.638;2023-04-02T10:11:07;2.25;;;1.73;;
51566;SDS011;37657;53.182;5.638;2023-04-02T10:19:12;3.58;;;1.58;;
51566;SDS011;37657;53.182;5.638;2023-04-02T10:21:59;2.33;;;1.50;;
51566;SDS011;37657;53.182;5.638;2023-04-02T10:24:29;1.77;;;1.33;;
51566;SDS011;37657;53.182;5.638;2023-04-02T10:32:32;3.72;;;2.03;;
51566;SDS011;37657;53.182;5.638;2023-04-02T10:35:37;3.90;;;1.73;;
51566;SDS011;37657;53.182;5.638;2023-04-02T10:38:18;3.20;;;1.73;;
51566;SDS011;37657;53.182;5.638;2023-04-02T10:40:52;3.78;;;1.42;;
51566;SDS011;37657;53.182;5.638;2023-04-02T10:52:23;3.58;;;2.28;;
51566;SDS011;37657;53.182;5.638;2023-04-02T10:54:53;5.55;;;1.50;;
51566;SDS011;37657;53.182;5.638;2023-04-02T10:57:35;3.30;;;1.50;;
51566;SDS011;37657;53.182;5.638;2023-04-02T11:05:40;1.85;;;1.17;;
51566;SDS011;37657;53.182;5.638;2023-04-02T11:08:13;3.78;;;2.03;;
51566;SDS011;37657;53.182;5.638;2023-04-02T11:11:04;4.13;;;1.92;;
51566;SDS011;37657;53.182;5.638;2023-04-02T11:16:34;3.13;;;1.60;;
51566;SDS011;37657;53.182;5.638;2023-04-02T11:21:42;3.33;;;1.35;;
51566;SDS011;37657;53.182;5.638;2023-04-02T11:29:52;4.57;;;1.88;;
51566;SDS011;37657;53.182;5.638;2023-04-02T11:32:38;3.28;;;1.85;;
51566;SDS011;37657;53.182;5.638;2023-04-02T11:37:54;4.03;;;1.65;;
51566;SDS011;37657;53.182;5.638;2023-04-02T11:46:00;3.78;;;1.40;;
51566;SDS011;37657;53.182;5.638;2023-04-02T11:48:45;1.40;;;1.05;;
51566;SDS011;37657;53.182;5.638;2023-04-02T11:53:46;2.88;;;1.83;;
51566;SDS011;37657;53.182;5.638;2023-04-02T11:56:27;2.53;;;1.52;;
51566;SDS011;37657;53.182;5.638;2023-04-02T11:59:14;4.07;;;1.75;;
51566;SDS011;37657;53.182;5.638;2023-04-02T12:01:58;3.45;;;1.85;;
51566;SDS011;37657;53.182;5.638;2023-04-02T12:10:18;1.88;;;1.50;;
51566;SDS011;37657;53.182;5.638;2023-04-02T12:12:45;3.00;;;1.67;;
51566;SDS011;37657;53.182;5.638;2023-04-02T12:17:51;3.92;;;1.40;;
51566;SDS011;37657;53.182;5.638;2023-04-02T12:20:19;3.55;;;1.60;;
51566;SDS011;37657;53.182;5.638;2023-04-02T12:22:53;3.90;;;1.67;;
51566;SDS011;37657;53.182;5.638;2023-04-02T12:25:28;4.63;;;2.38;;
51566;SDS011;37657;53.182;5.638;2023-04-02T12:31:00;9.48;;;3.13;;
51566;SDS011;37657;53.182;5.638;2023-04-02T12:33:33;3.50;;;1.40;;
51566;SDS011;37657;53.182;5.638;2023-04-02T12:36:03;2.85;;;1.70;;
51566;SDS011;37657;53.182;5.638;2023-04-02T12:38:33;2.60;;;1.48;;
51566;SDS011;37657;53.182;5.638;2023-04-02T12:41:18;5.18;;;2.00;;
51566;SDS011;37657;53.182;5.638;2023-04-02T12:46:26;5.30;;;1.58;;
51566;SDS011;37657;53.182;5.638;2023-04-02T12:48:53;5.05;;;2.10;;
51566;SDS011;37657;53.182;5.638;2023-04-02T12:51:28;2.25;;;1.23;;
51566;SDS011;37657;53.182;5.638;2023-04-02T12:53:54;2.42;;;1.30;;
51566;SDS011;37657;53.182;5.638;2023-04-02T12:56:21;3.70;;;1.63;;
51566;SDS011;37657;53.182;5.638;2023-04-02T12:59:00;3.20;;;1.52;;
51566;SDS011;37657;53.182;5.638;2023-04-02T13:01:26;3.70;;;1.52;;
51566;SDS011;37657;53.182;5.638;2023-04-02T13:04:07;1.70;;;1.55;;
51566;SDS011;37657;53.182;5.638;2023-04-02T13:06:33;1.90;;;1.45;;
51566;SDS011;37657;53.182;5.638;2023-04-02T13:09:00;1.23;;;1.15;;
51566;SDS011;37657;53.182;5.638;2023-04-02T13:11:32;4.32;;;2.10;;
51566;SDS011;37657;53.182;5.638;2023-04-02T13:14:00;2.78;;;1.63;;
51566;SDS011;37657;53.182;5.638;2023-04-02T13:16:28;2.97;;;1.38;;
51566;SDS011;37657;53.182;5.638;2023-04-02T13:19:17;5.00;;;1.40;;
51566;SDS011;37657;53.182;5.638;2023-04-02T13:21:47;6.97;;;1.42;;
51566;SDS011;37657;53.182;5.638;2023-04-02T13:24:20;3.42;;;1.48;;
51566;SDS011;37657;53.182;5.638;2023-04-02T13:26:48;2.17;;;1.63;;
51566;SDS011;37657;53.182;5.638;2023-04-02T13:29:17;2.78;;;1.20;;
51566;SDS011;37657;53.182;5.638;2023-04-02T13:31:45;4.10;;;1.58;;
51566;SDS011;37657;53.182;5.638;2023-04-02T13:34:11;3.20;;;2.17;;
51566;SDS011;37657;53.182;5.638;2023-04-02T13:36:37;3.38;;;1.52;;
51566;SDS011;37657;53.182;5.638;2023-04-02T13:39:02;3.45;;;1.60;;
51566;SDS011;37657;53.182;5.638;2023-04-02T13:41:29;3.25;;;1.92;;
51566;SDS011;37657;53.182;5.638;2023-04-02T13:43:58;2.03;;;1.50;;
51566;SDS011;37657;53.182;5.638;2023-04-02T13:46:27;3.55;;;1.38;;
51566;SDS011;37657;53.182;5.638;2023-04-02T13:48:54;4.25;;;1.75;;
51566;SDS011;37657;53.182;5.638;2023-04-02T13:51:26;7.10;;;1.52;;
51566;SDS011;37657;53.182;5.638;2023-04-02T13:54:00;5.97;;;2.22;;
51566;SDS011;37657;53.182;5.638;2023-04-02T13:56:25;2.17;;;1.20;;
51566;SDS011;37657;53.182;5.638;2023-04-02T13:58:51;0.95;;;0.95;;
51566;SDS011;37657;53.182;5.638;2023-04-02T14:01:17;3.83;;;1.65;;
51566;SDS011;37657;53.182;5.638;2023-04-02T14:03:45;4.75;;;1.73;;
51566;SDS011;37657;53.182;5.638;2023-04-02T14:09:14;7.32;;;2.35;;
51566;SDS011;37657;53.182;5.638;2023-04-02T14:11:51;2.88;;;1.52;;
51566;SDS011;37657;53.182;5.638;2023-04-02T14:28:46;4.20;;;2.03;;
51566;SDS011;37657;53.182;5.638;2023-04-02T14:31:35;2.70;;;1.63;;
51566;SDS011;37657;53.182;5.638;2023-04-02T14:42:37;3.30;;;1.60;;
51566;SDS011;37657;53.182;5.638;2023-04-02T14:45:11;1.95;;;1.52;;
51566;SDS011;37657;53.182;5.638;2023-04-02T14:47:56;3.38;;;1.42;;
51566;SDS011;37657;53.182;5.638;2023-04-02T14:50:34;2.58;;;1.63;;
51566;SDS011;37657;53.182;5.638;2023-04-02T14:53:06;5.75;;;2.40;;
51566;SDS011;37657;53.182;5.638;2023-04-02T14:55:43;3.50;;;2.08;;
51566;SDS011;37657;53.182;5.638;2023-04-02T14:58:17;5.00;;;2.25;;
51566;SDS011;37657;53.182;5.638;2023-04-02T15:01:09;4.53;;;1.98;;
51566;SDS011;37657;53.182;5.638;2023-04-02T15:03:42;2.65;;;1.73;;
51566;SDS011;37657;53.182;5.638;2023-04-02T15:06:19;2.38;;;1.65;;
51566;SDS011;37657;53.182;5.638;2023-04-02T15:08:48;5.75;;;2.38;;
51566;SDS011;37657;53.182;5.638;2023-04-02T15:11:28;4.55;;;2.42;;
51566;SDS011;37657;53.182;5.638;2023-04-02T15:16:49;3.28;;;1.75;;
51566;SDS011;37657;53.182;5.638;2023-04-02T15:19:15;1.98;;;1.42;;
51566;SDS011;37657;53.182;5.638;2023-04-02T15:24:52;2.63;;;1.58;;
51566;SDS011;37657;53.182;5.638;2023-04-02T15:37:49;4.63;;;2.10;;
51566;SDS011;37657;53.182;5.638;2023-04-02T15:40:33;6.72;;;2.33;;
51566;SDS011;37657;53.182;5.638;2023-04-02T15:46:42;2.15;;;1.70;;
51566;SDS011;37657;53.182;5.638;2023-04-02T15:49:39;2.30;;;1.40;;
51566;SDS011;37657;53.182;5.638;2023-04-02T15:52:21;3.10;;;1.35;;
51566;SDS011;37657;53.182;5.638;2023-04-02T16:00:27;3.00;;;1.70;;
51566;SDS011;37657;53.182;5.638;2023-04-02T16:03:32;4.18;;;1.58;;
51566;SDS011;37657;53.182;5.638;2023-04-02T16:11:33;2.63;;;1.35;;
51566;SDS011;37657;53.182;5.638;2023-04-02T16:14:14;2.45;;;1.58;;
51566;SDS011;37657;53.182;5.638;2023-04-02T16:16:50;3.20;;;1.50;;
51566;SDS011;37657;53.182;5.638;2023-04-02T16:19:24;2.45;;;1.73;;
51566;SDS011;37657;53.182;5.638;2023-04-02T16:22:10;2.40;;;1.75;;
51566;SDS011;37657;53.182;5.638;2023-04-02T16:25:20;7.95;;;2.13;;
51566;SDS011;37657;53.182;5.638;2023-04-02T16:27:41;2.17;;;1.58;;
51566;SDS011;37657;53.182;5.638;2023-04-02T16:35:19;5.63;;;2.50;;
51566;SDS011;37657;53.182;5.638;2023-04-02T16:40:52;6.20;;;2.03;;
51566;SDS011;37657;53.182;5.638;2023-04-02T16:43:25;2.03;;;1.40;;
51566;SDS011;37657;53.182;5.638;2023-04-02T16:46:15;2.45;;;1.60;;
51566;SDS011;37657;53.182;5.638;2023-04-02T16:49:13;3.50;;;1.98;;
51566;SDS011;37657;53.182;5.638;2023-04-02T17:00:31;3.20;;;1.50;;
51566;SDS011;37657;53.182;5.638;2023-04-02T17:03:13;1.42;;;1.10;;
51566;SDS011;37657;53.182;5.638;2023-04-02T17:08:30;9.95;;;2.97;;
51566;SDS011;37657;53.182;5.638;2023-04-02T17:11:07;5.85;;;2.25;;
51566;SDS011;37657;53.182;5.638;2023-04-02T17:13:43;3.03;;;1.75;;
51566;SDS011;37657;53.182;5.638;2023-04-02T17:18:51;3.90;;;2.08;;
51566;SDS011;37657;53.182;5.638;2023-04-02T17:21:23;3.35;;;1.98;;
51566;SDS011;37657;53.182;5.638;2023-04-02T17:23:53;3.50;;;1.38;;
51566;SDS011;37657;53.182;5.638;2023-04-02T17:26:30;2.60;;;1.63;;
51566;SDS011;37657;53.182;5.638;2023-04-02T17:28:59;3.88;;;3.15;;
51566;SDS011;37657;53.182;5.638;2023-04-02T17:31:31;3.70;;;2.22;;
51566;SDS011;37657;53.182;5.638;2023-04-02T17:34:11;6.40;;;2.45;;
51566;SDS011;37657;53.182;5.638;2023-04-02T17:39:33;4.68;;;2.15;;
51566;SDS011;37657;53.182;5.638;2023-04-02T17:42:09;3.80;;;1.63;;
51566;SDS011;37657;53.182;5.638;2023-04-02T17:44:54;8.35;;;2.90;;
51566;SDS011;37657;53.182;5.638;2023-04-02T17:47:40;5.22;;;3.42;;
51566;SDS011;37657;53.182;5.638;2023-04-02T17:50:41;5.18;;;2.22;;
51566;SDS011;37657;53.182;5.638;2023-04-02T17:59:13;3.92;;;2.13;;
51566;SDS011;37657;53.182;5.638;2023-04-02T18:08:15;6.38;;;2.63;;
51566;SDS011;37657;53.182;5.638;2023-04-02T18:13:34;5.13;;;3.17;;
51566;SDS011;37657;53.182;5.638;2023-04-02T18:16:19;14.93;;;2.90;;
51566;SDS011;37657;53.182;5.638;2023-04-02T18:18:59;3.55;;;2.63;;
51566;SDS011;37657;53.182;5.638;2023-04-02T18:24:27;5.68;;;2.65;;
51566;SDS011;37657;53.182;5.638;2023-04-02T18:40:51;5.13;;;3.20;;
51566;SDS011;37657;53.182;5.638;2023-04-02T18:43:50;6.88;;;3.33;;
51566;SDS011;37657;53.182;5.638;2023-04-02T18:52:02;5.40;;;3.42;;
51566;SDS011;37657;53.182;5.638;2023-04-02T18:57:15;3.75;;;2.97;;
51566;SDS011;37657;53.182;5.638;2023-04-02T18:59:50;3.72;;;2.72;;
51566;SDS011;37657;53.182;5.638;2023-04-02T19:08:03;3.55;;;2.33;;
51566;SDS011;37657;53.182;5.638;2023-04-02T19:10:52;4.15;;;2.80;;
51566;SDS011;37657;53.182;5.638;2023-04-02T19:13:22;5.60;;;3.20;;
51566;SDS011;37657;53.182;5.638;2023-04-02T19:15:56;5.72;;;2.22;;
51566;SDS011;37657;53.182;5.638;2023-04-02T19:34:51;3.63;;;2.40;;
51566;SDS011;37657;53.182;5.638;2023-04-02T19:37:31;39.25;;;3.75;;
51566;SDS011;37657;53.182;5.638;2023-04-02T19:43:02;5.83;;;2.37;;
51566;SDS011;37657;53.182;5.638;2023-04-02T19:48:18;5.78;;;2.50;;
51566;SDS011;37657;53.182;5.638;2023-04-02T19:50:53;5.80;;;2.63;;
51566;SDS011;37657;53.182;5.638;2023-04-02T19:53:19;6.57;;;2.90;;
51566;SDS011;37657;53.182;5.638;2023-04-02T19:55:45;3.20;;;2.45;;
51566;SDS011;37657;53.182;5.638;2023-04-02T19:58:27;4.88;;;2.88;;
51566;SDS011;37657;53.182;5.638;2023-04-02T20:00:54;4.65;;;2.78;;
51566;SDS011;37657;53.182;5.638;2023-04-02T20:03:20;3.85;;;2.30;;
51566;SDS011;37657;53.182;5.638;2023-04-02T20:05:47;5.35;;;3.30;;
51566;SDS011;37657;53.182;5.638;2023-04-02T20:08:12;3.08;;;2.28;;
51566;SDS011;37657;53.182;5.638;2023-04-02T20:10:38;4.28;;;2.95;;
51566;SDS011;37657;53.182;5.638;2023-04-02T20:13:04;3.58;;;2.70;;
51566;SDS011;37657;53.182;5.638;2023-04-02T20:15:30;3.00;;;2.33;;
51566;SDS011;37657;53.182;5.638;2023-04-02T20:17:56;4.93;;;2.47;;
51566;SDS011;37657;53.182;5.638;2023-04-02T20:20:22;5.47;;;3.33;;
51566;SDS011;37657;53.182;5.638;2023-04-02T20:22:47;3.88;;;2.33;;
51566;SDS011;37657;53.182;5.638;2023-04-02T20:25:13;5.10;;;3.03;;
51566;SDS011;37657;53.182;5.638;2023-04-02T20:27:39;4.13;;;2.70;;